createdAt,value
2023-07-11T00:00:19.355Z,61.74
2023-07-11T00:01:19.593Z,61.85
2023-07-11T00:02:19.717Z,61.89
2023-07-11T00:03:19.929Z,61.88
2023-07-11T00:04:20.016Z,61.92
2023-07-11T00:05:20.204Z,61.84
2023-07-11T00:06:20.382Z,62.06
2023-07-11T00:07:20.561Z,62.21
2023-07-11T00:08:20.729Z,62.22
2023-07-11T00:09:20.895Z,62.11
2023-07-11T00:10:21.064Z,62.08
2023-07-11T00:11:21.208Z,62.08
2023-07-11T00:12:21.344Z,62.13
2023-07-11T00:13:21.462Z,62.10
2023-07-11T00:14:21.606Z,62.04
2023-07-11T00:15:21.722Z,62.06
2023-07-11T00:16:21.917Z,62.11
2023-07-11T00:17:22.036Z,62.25
2023-07-11T00:18:22.151Z,62.39
2023-07-11T00:19:22.289Z,62.35
2023-07-11T00:20:22.432Z,62.30
2023-07-11T00:21:22.540Z,62.28
2023-07-11T00:22:22.673Z,62.33
2023-07-11T00:23:22.811Z,62.29
2023-07-11T00:24:22.954Z,62.46
2023-07-11T00:25:23.068Z,62.42
2023-07-11T00:26:23.231Z,62.45
2023-07-11T00:27:23.376Z,62.35
2023-07-11T00:28:23.504Z,62.53
2023-07-11T00:29:23.629Z,62.51
2023-07-11T00:30:23.799Z,62.56
2023-07-11T00:31:23.933Z,62.55
2023-07-11T00:32:24.044Z,62.70
2023-07-11T00:33:24.138Z,62.69
2023-07-11T00:34:24.282Z,62.64
2023-07-11T00:35:24.402Z,62.69
2023-07-11T00:36:24.525Z,62.71
2023-07-11T00:37:24.648Z,62.70
2023-07-11T00:38:24.781Z,62.80
2023-07-11T00:39:24.952Z,62.82
2023-07-11T00:40:25.062Z,62.82
2023-07-11T00:41:25.212Z,62.88
2023-07-11T00:42:25.361Z,62.72
2023-07-11T00:43:25.482Z,62.73
2023-07-11T00:44:25.622Z,62.64
2023-07-11T00:45:25.757Z,62.72
2023-07-11T00:46:25.910Z,62.75
2023-07-11T00:47:26.090Z,62.83
2023-07-11T00:48:26.206Z,62.79
2023-07-11T00:49:26.369Z,62.91
2023-07-11T00:50:26.560Z,62.94
2023-07-11T00:51:26.685Z,62.97
2023-07-11T00:52:26.857Z,62.97
2023-07-11T00:53:26.996Z,63.02
2023-07-11T00:54:27.164Z,63.08
2023-07-11T00:55:27.314Z,63.26
2023-07-11T00:56:27.451Z,63.39
2023-07-11T00:57:27.627Z,63.49
2023-07-11T00:58:27.760Z,63.30
2023-07-11T00:59:27.931Z,63.23
2023-07-11T01:00:28.137Z,63.23
2023-07-11T01:01:28.274Z,63.28
2023-07-11T01:02:28.593Z,63.26
2023-07-11T01:03:28.748Z,63.41
2023-07-11T01:04:28.791Z,63.40
2023-07-11T01:05:29.004Z,63.45
2023-07-11T01:06:29.174Z,63.40
2023-07-11T01:07:29.405Z,63.58
2023-07-11T01:08:29.517Z,63.34
2023-07-11T01:09:29.679Z,63.31
2023-07-11T01:10:29.829Z,63.41
2023-07-11T01:11:29.998Z,63.46
2023-07-11T01:12:30.428Z,63.62
2023-07-11T01:13:30.408Z,63.60
2023-07-11T01:14:30.603Z,63.68
2023-07-11T01:15:30.741Z,63.57
2023-07-11T01:16:31.477Z,63.53
2023-07-11T01:17:31.051Z,63.60
2023-07-11T01:18:31.246Z,63.67
2023-07-11T01:19:31.391Z,63.69
2023-07-11T01:20:31.577Z,63.66
2023-07-11T01:21:31.748Z,63.71
2023-07-11T01:22:31.963Z,63.68
2023-07-11T01:23:32.113Z,63.77
2023-07-11T01:24:32.276Z,63.86
2023-07-11T01:25:32.467Z,63.89
2023-07-11T01:26:32.682Z,64.01
2023-07-11T01:27:32.868Z,63.91
2023-07-11T01:28:33.057Z,63.86
2023-07-11T01:29:33.256Z,64.06
2023-07-11T01:30:34.475Z,64.08
2023-07-11T01:31:33.699Z,64.04
2023-07-11T01:32:33.885Z,63.89
2023-07-11T01:33:34.037Z,64.00
2023-07-11T01:34:34.140Z,64.11
2023-07-11T01:35:34.249Z,64.16
2023-07-11T01:36:34.393Z,64.14
2023-07-11T01:37:34.527Z,64.19
2023-07-11T01:38:34.644Z,64.20
2023-07-11T01:39:34.784Z,64.17
2023-07-11T01:40:34.918Z,64.18
2023-07-11T01:41:35.073Z,64.19
2023-07-11T01:42:35.187Z,64.07
2023-07-11T01:43:35.405Z,64.12
2023-07-11T01:44:35.569Z,64.11
2023-07-11T01:45:35.789Z,64.14
2023-07-11T01:46:36.037Z,64.23
2023-07-11T01:47:36.236Z,64.14
2023-07-11T01:48:36.396Z,64.22
2023-07-11T01:49:36.531Z,64.29
2023-07-11T01:50:36.674Z,64.29
2023-07-11T01:51:36.846Z,64.26
2023-07-11T01:52:36.995Z,64.17
2023-07-11T01:53:37.151Z,64.33
2023-07-11T01:54:37.343Z,64.33
2023-07-11T01:55:37.468Z,64.39
2023-07-11T01:56:37.632Z,64.36
2023-07-11T01:57:37.944Z,64.40
2023-07-11T01:58:37.888Z,64.47
2023-07-11T01:59:38.083Z,64.42
2023-07-11T02:00:38.184Z,64.46
2023-07-11T02:01:38.365Z,64.43
2023-07-11T02:02:38.648Z,64.65
2023-07-11T02:03:38.819Z,64.84
2023-07-11T02:04:38.901Z,64.79
2023-07-11T02:05:39.105Z,64.79
2023-07-11T02:06:39.254Z,64.76
2023-07-11T02:07:39.424Z,64.95
2023-07-11T02:08:39.569Z,65.04
2023-07-11T02:09:39.733Z,64.94
2023-07-11T02:10:39.860Z,64.82
2023-07-11T02:11:40.016Z,64.80
2023-07-11T02:12:40.170Z,64.75
2023-07-11T02:13:40.318Z,64.77
2023-07-11T02:14:40.422Z,64.73
2023-07-11T02:15:40.562Z,64.80
2023-07-11T02:16:40.803Z,64.85
2023-07-11T02:17:40.966Z,64.95
2023-07-11T02:18:40.972Z,65.00
2023-07-11T02:19:41.145Z,65.00
2023-07-11T02:20:41.287Z,64.95
2023-07-11T02:21:41.939Z,65.05
2023-07-11T02:22:41.530Z,65.02
2023-07-11T02:23:41.682Z,64.93
2023-07-11T02:24:41.803Z,64.92
2023-07-11T02:25:41.968Z,64.92
2023-07-11T02:26:42.087Z,64.91
2023-07-11T02:27:42.225Z,64.65
2023-07-11T02:28:42.362Z,64.70
2023-07-11T02:29:42.496Z,64.70
2023-07-11T02:30:42.634Z,64.74
2023-07-11T02:31:42.847Z,64.66
2023-07-11T02:32:42.989Z,64.81
2023-07-11T02:33:43.070Z,64.77
2023-07-11T02:34:43.222Z,64.76
2023-07-11T02:35:43.391Z,64.97
2023-07-11T02:36:43.568Z,64.92
2023-07-11T02:37:43.785Z,64.82
2023-07-11T02:38:44.000Z,65.01
2023-07-11T02:39:44.179Z,64.97
2023-07-11T02:40:44.382Z,64.92
2023-07-11T02:41:44.578Z,64.95
2023-07-11T02:42:44.747Z,65.11
2023-07-11T02:43:44.930Z,65.04
2023-07-11T02:44:45.117Z,65.03
2023-07-11T02:45:45.360Z,65.07
2023-07-11T02:46:45.494Z,65.03
2023-07-11T02:47:45.739Z,64.94
2023-07-11T02:48:45.886Z,65.02
2023-07-11T02:49:46.106Z,65.05
2023-07-11T02:50:46.326Z,64.88
2023-07-11T02:51:46.510Z,64.90
2023-07-11T02:52:46.679Z,64.95
2023-07-11T02:53:46.909Z,65.02
2023-07-11T02:54:47.066Z,65.02
2023-07-11T02:55:47.246Z,64.91
2023-07-11T02:56:47.417Z,65.01
2023-07-11T02:57:47.644Z,65.15
2023-07-11T02:58:47.782Z,65.18
2023-07-11T02:59:47.975Z,65.27
2023-07-11T03:00:48.182Z,65.05
2023-07-11T03:01:48.339Z,65.02
2023-07-11T03:02:48.630Z,65.10
2023-07-11T03:03:48.731Z,65.09
2023-07-11T03:04:48.937Z,65.19
2023-07-11T03:05:49.113Z,64.93
2023-07-11T03:06:49.300Z,65.09
2023-07-11T03:07:49.516Z,65.14
2023-07-11T03:08:49.737Z,65.20
2023-07-11T03:09:49.923Z,65.27
2023-07-11T03:10:50.101Z,65.23
2023-07-11T03:11:50.307Z,65.24
2023-07-11T03:12:50.583Z,65.29
2023-07-11T03:13:50.723Z,65.28
2023-07-11T03:14:50.927Z,65.40
2023-07-11T03:15:51.153Z,65.35
2023-07-11T03:16:51.313Z,65.35
2023-07-11T03:17:51.496Z,65.52
2023-07-11T03:18:51.617Z,65.56
2023-07-11T03:19:51.812Z,65.57
2023-07-11T03:20:51.983Z,65.62
2023-07-11T03:21:52.177Z,65.58
2023-07-11T03:22:52.339Z,65.70
2023-07-11T03:23:52.551Z,65.83
2023-07-11T03:24:52.753Z,65.70
2023-07-11T03:25:52.978Z,65.73
2023-07-11T03:26:53.170Z,65.82
2023-07-11T03:27:53.377Z,65.84
2023-07-11T03:28:53.576Z,65.85
2023-07-11T03:29:53.813Z,65.94
2023-07-11T03:30:54.028Z,65.87
2023-07-11T03:31:54.208Z,65.97
2023-07-11T03:32:54.430Z,65.93
2023-07-11T03:33:54.604Z,65.99
2023-07-11T03:35:02.650Z,66.01
2023-07-11T03:35:55.931Z,66.06
2023-07-11T03:36:55.067Z,65.82
2023-07-11T03:37:55.220Z,65.69
2023-07-11T03:38:55.362Z,65.61
2023-07-11T03:39:55.552Z,65.62
2023-07-11T03:40:55.634Z,65.58
2023-07-11T03:41:55.777Z,65.58
2023-07-11T03:42:55.949Z,65.60
2023-07-11T03:43:56.086Z,65.64
2023-07-11T03:44:56.194Z,65.66
2023-07-11T03:45:56.394Z,65.74
2023-07-11T03:46:56.575Z,65.69
2023-07-11T03:47:56.768Z,65.53
2023-07-11T03:48:56.871Z,65.63
2023-07-11T03:49:56.997Z,65.64
2023-07-11T03:50:57.961Z,65.72
2023-07-11T03:51:57.295Z,65.69
2023-07-11T03:52:57.419Z,65.59
2023-07-11T03:53:57.560Z,65.59
2023-07-11T03:54:57.707Z,65.56
2023-07-11T03:55:57.887Z,65.46
2023-07-11T03:56:58.025Z,65.45
2023-07-11T03:57:58.199Z,65.27
2023-07-11T03:58:58.394Z,65.32
2023-07-11T03:59:58.622Z,65.36
2023-07-11T04:00:58.821Z,65.29
2023-07-11T04:01:59.048Z,65.24
2023-07-11T04:02:59.237Z,65.17
2023-07-11T04:03:59.356Z,65.07
2023-07-11T04:04:59.433Z,65.01
2023-07-11T04:05:59.594Z,64.97
2023-07-11T04:06:59.730Z,64.89
2023-07-11T04:07:59.882Z,64.80
2023-07-11T04:09:00.037Z,64.90
2023-07-11T04:10:00.194Z,64.94
2023-07-11T04:11:00.303Z,65.01
2023-07-11T04:12:00.427Z,64.87
2023-07-11T04:13:00.569Z,64.78
2023-07-11T04:14:00.780Z,64.81
2023-07-11T04:15:00.879Z,64.73
2023-07-11T04:16:01.013Z,64.65
2023-07-11T04:17:01.257Z,64.77
2023-07-11T04:18:01.359Z,64.82
2023-07-11T04:19:01.487Z,64.81
2023-07-11T04:20:01.689Z,64.73
2023-07-11T04:21:01.904Z,64.75
2023-07-11T04:22:02.100Z,64.69
2023-07-11T04:23:02.306Z,64.67
2023-07-11T04:24:02.465Z,64.58
2023-07-11T04:25:02.613Z,64.53
2023-07-11T04:26:02.794Z,64.51
2023-07-11T04:27:02.922Z,64.46
2023-07-11T04:28:03.096Z,64.39
2023-07-11T04:29:03.288Z,64.34
2023-07-11T04:30:03.480Z,64.20
2023-07-11T04:31:03.699Z,64.09
2023-07-11T04:32:03.887Z,64.10
2023-07-11T04:33:04.188Z,64.03
2023-07-11T04:34:04.293Z,64.03
2023-07-11T04:35:04.566Z,64.13
2023-07-11T04:36:04.605Z,64.13
2023-07-11T04:37:04.781Z,64.08
2023-07-11T04:38:04.929Z,64.10
2023-07-11T04:39:05.099Z,64.12
2023-07-11T04:40:05.279Z,64.10
2023-07-11T04:41:05.404Z,63.99
2023-07-11T04:42:05.576Z,63.89
2023-07-11T04:43:05.719Z,64.04
2023-07-11T04:44:05.894Z,63.98
2023-07-11T04:45:06.029Z,63.94
2023-07-11T04:46:06.552Z,63.83
2023-07-11T04:47:06.425Z,63.79
2023-07-11T04:48:06.617Z,63.70
2023-07-11T04:49:06.782Z,63.63
2023-07-11T04:50:06.967Z,63.40
2023-07-11T04:51:07.168Z,63.28
2023-07-11T04:52:07.320Z,63.42
2023-07-11T04:53:07.500Z,63.42
2023-07-11T04:54:07.703Z,63.32
2023-07-11T04:55:07.861Z,63.20
2023-07-11T04:56:08.288Z,63.09
2023-07-11T04:57:08.238Z,63.13
2023-07-11T04:58:08.401Z,63.09
2023-07-11T04:59:08.556Z,63.07
2023-07-11T05:00:08.734Z,63.06
2023-07-11T05:01:08.910Z,62.99
2023-07-11T05:02:09.065Z,62.69
2023-07-11T05:03:09.293Z,62.59
2023-07-11T05:04:09.393Z,62.56
2023-07-11T05:05:09.460Z,62.53
2023-07-11T05:06:10.171Z,62.57
2023-07-11T05:07:09.721Z,62.47
2023-07-11T05:08:09.844Z,62.39
2023-07-11T05:09:09.955Z,62.34
2023-07-11T05:10:10.120Z,62.47
2023-07-11T05:11:10.231Z,62.04
2023-07-11T05:12:10.325Z,61.91
2023-07-11T05:13:11.504Z,61.92
2023-07-11T05:14:10.699Z,61.94
2023-07-11T05:15:10.704Z,62.05
2023-07-11T05:16:11.030Z,62.05
2023-07-11T05:17:11.087Z,62.05
2023-07-11T05:18:11.080Z,61.96
2023-07-11T05:19:11.183Z,61.96
2023-07-11T05:20:11.295Z,61.88
2023-07-11T05:21:11.424Z,61.90
2023-07-11T05:22:11.550Z,61.76
2023-07-11T05:23:11.670Z,61.74
2023-07-11T05:24:11.949Z,61.70
2023-07-11T05:25:12.020Z,61.62
2023-07-11T05:26:12.196Z,61.57
2023-07-11T05:27:12.334Z,61.68
2023-07-11T05:28:12.472Z,61.68
2023-07-11T05:29:12.643Z,61.79
2023-07-11T05:30:12.818Z,61.69
2023-07-11T05:31:13.042Z,61.69
2023-07-11T05:32:13.165Z,61.63
2023-07-11T05:33:13.285Z,61.43
2023-07-11T05:34:13.466Z,61.37
2023-07-11T05:35:13.630Z,61.35
2023-07-11T05:36:13.805Z,61.22
2023-07-11T05:37:13.995Z,61.08
2023-07-11T05:38:14.221Z,60.98
2023-07-11T05:39:14.292Z,60.88
2023-07-11T05:40:14.456Z,60.90
2023-07-11T05:41:14.636Z,60.93
2023-07-11T05:42:14.800Z,60.75
2023-07-11T05:43:15.018Z,60.81
2023-07-11T05:44:15.146Z,60.84
2023-07-11T05:45:15.252Z,60.70
2023-07-11T05:46:15.444Z,60.52
2023-07-11T05:47:15.523Z,60.51
2023-07-11T05:48:15.693Z,60.64
2023-07-11T05:49:15.732Z,60.53
2023-07-11T05:50:15.845Z,60.54
2023-07-11T05:51:15.950Z,60.34
2023-07-11T05:52:16.067Z,60.29
2023-07-11T05:53:16.201Z,60.24
2023-07-11T05:54:16.312Z,60.30
2023-07-11T05:55:16.396Z,60.19
2023-07-11T05:56:16.609Z,60.39
2023-07-11T05:57:16.715Z,60.43
2023-07-11T05:58:16.865Z,60.30
2023-07-11T05:59:17.058Z,59.88
2023-07-11T06:00:17.156Z,59.72
2023-07-11T06:01:17.320Z,59.73
2023-07-11T06:02:17.445Z,59.87
2023-07-11T06:03:17.663Z,59.62
2023-07-11T06:04:17.727Z,59.49
2023-07-11T06:05:17.945Z,59.54
2023-07-11T06:06:18.097Z,59.70
2023-07-11T06:07:18.291Z,59.53
2023-07-11T06:08:18.499Z,59.48
2023-07-11T06:09:18.670Z,59.09
2023-07-11T06:10:18.757Z,57.92
2023-07-11T06:11:18.921Z,56.27
2023-07-11T06:12:19.058Z,54.13
2023-07-11T06:13:19.524Z,52.26
2023-07-11T06:14:19.352Z,50.36
2023-07-11T06:15:19.410Z,48.85
2023-07-11T06:16:19.575Z,47.51
2023-07-11T06:17:19.665Z,46.20
2023-07-11T06:18:19.814Z,44.86
2023-07-11T06:19:19.903Z,43.88
2023-07-11T06:20:20.044Z,43.05
2023-07-11T06:21:20.112Z,42.29
2023-07-11T06:22:20.170Z,41.59
2023-07-11T06:23:20.242Z,40.98
2023-07-11T06:24:20.332Z,40.84
2023-07-11T06:25:20.377Z,40.99
2023-07-11T06:26:20.414Z,41.32
2023-07-11T06:27:20.482Z,42.12
2023-07-11T06:28:20.610Z,42.13
2023-07-11T06:29:20.593Z,42.70
2023-07-11T06:30:20.689Z,43.13
2023-07-11T06:31:20.738Z,43.72
2023-07-11T06:32:20.787Z,43.70
2023-07-11T06:33:20.822Z,44.13
2023-07-11T06:34:20.837Z,44.56
2023-07-11T06:35:21.042Z,44.80
2023-07-11T06:36:21.051Z,45.15
2023-07-11T06:37:21.116Z,45.63
2023-07-11T06:38:21.244Z,46.07
2023-07-11T06:39:21.366Z,46.02
2023-07-11T06:40:21.495Z,46.04
2023-07-11T06:41:21.541Z,45.74
2023-07-11T06:42:21.612Z,45.39
2023-07-11T06:43:21.741Z,45.50
2023-07-11T06:44:21.808Z,45.14
2023-07-11T06:45:21.844Z,45.14
2023-07-11T06:46:21.889Z,45.69
2023-07-11T06:47:22.110Z,45.89
2023-07-11T06:48:22.021Z,45.46
2023-07-11T06:49:22.058Z,45.18
2023-07-11T06:50:23.000Z,45.19
2023-07-11T06:51:23.025Z,44.68
2023-07-11T06:52:22.197Z,44.20
2023-07-11T06:53:22.274Z,44.22
2023-07-11T06:54:22.308Z,44.01
2023-07-11T06:55:22.481Z,44.55
2023-07-11T06:56:22.513Z,44.04
2023-07-11T06:57:22.546Z,43.81
2023-07-11T06:58:22.621Z,42.68
2023-07-11T06:59:22.658Z,42.47
2023-07-11T07:00:22.821Z,42.95
2023-07-11T07:01:35.469Z,42.68
2023-07-11T07:02:23.952Z,43.37
2023-07-11T07:03:22.945Z,43.24
2023-07-11T07:04:22.968Z,42.01
2023-07-11T07:05:22.900Z,41.82
2023-07-11T07:06:22.966Z,41.74
2023-07-11T07:07:22.946Z,42.04
2023-07-11T07:08:22.982Z,41.78
2023-07-11T07:09:24.506Z,42.21
2023-07-11T07:10:23.007Z,41.85
2023-07-11T07:11:23.063Z,41.61
2023-07-11T07:12:22.979Z,41.30
2023-07-11T07:13:23.082Z,41.54
2023-07-11T07:14:23.055Z,41.17
2023-07-11T07:15:23.051Z,40.30
2023-07-11T07:16:23.077Z,40.73
2023-07-11T07:17:23.164Z,39.84
2023-07-11T07:18:23.029Z,39.47
2023-07-11T07:19:23.023Z,40.12
2023-07-11T07:20:23.006Z,40.32
2023-07-11T07:21:22.989Z,40.53
2023-07-11T07:22:22.990Z,40.50
2023-07-11T07:23:23.014Z,40.50
2023-07-11T07:24:23.130Z,40.24
2023-07-11T07:25:25.008Z,38.91
2023-07-11T07:26:22.972Z,38.48
2023-07-11T07:27:28.204Z,39.46
2023-07-11T07:28:24.067Z,39.11
2023-07-11T07:29:22.950Z,38.64
2023-07-11T07:30:23.073Z,37.76
2023-07-11T07:31:23.610Z,38.04
2023-07-11T07:32:23.011Z,38.37
2023-07-11T07:33:23.127Z,38.53
2023-07-11T07:34:22.980Z,37.69
2023-07-11T07:35:22.840Z,37.09
2023-07-11T07:36:22.852Z,36.71
2023-07-11T07:37:22.835Z,37.07
2023-07-11T07:38:22.844Z,37.44
2023-07-11T07:39:22.871Z,37.55
2023-07-11T07:40:22.895Z,37.04
2023-07-11T07:41:22.991Z,36.95
2023-07-11T07:42:22.941Z,37.09
2023-07-11T07:43:22.981Z,36.68
2023-07-11T07:44:22.992Z,36.04
2023-07-11T07:45:23.020Z,35.99
2023-07-11T07:46:23.059Z,36.02
2023-07-11T07:47:23.072Z,36.02
2023-07-11T07:48:22.992Z,35.40
2023-07-11T07:49:22.978Z,35.41
2023-07-11T07:50:23.138Z,36.25
2023-07-11T07:51:23.043Z,35.00
2023-07-11T07:52:23.114Z,36.18
2023-07-11T07:53:23.277Z,35.97
2023-07-11T07:54:23.165Z,36.69
2023-07-11T07:55:23.195Z,35.20
2023-07-11T07:56:23.205Z,34.43
2023-07-11T07:57:23.243Z,34.57
2023-07-11T07:58:40.535Z,35.49
2023-07-11T07:59:24.204Z,35.21
2023-07-11T08:00:23.263Z,35.05
2023-07-11T08:01:23.111Z,34.97
2023-07-11T08:02:23.248Z,34.95
2023-07-11T08:03:23.181Z,35.17
2023-07-11T08:04:23.166Z,35.25
2023-07-11T08:05:23.036Z,35.24
2023-07-11T08:06:23.596Z,34.90
2023-07-11T08:07:22.994Z,34.42
2023-07-11T08:08:23.005Z,34.13
2023-07-11T08:09:22.974Z,33.75
2023-07-11T08:10:23.026Z,34.02
2023-07-11T08:11:23.036Z,34.39
2023-07-11T08:12:22.999Z,34.24
2023-07-11T08:13:22.985Z,34.62
2023-07-11T08:14:22.970Z,36.22
2023-07-11T08:15:22.861Z,35.94
2023-07-11T08:16:29.602Z,36.17
2023-07-11T08:17:23.873Z,36.36
2023-07-11T08:18:22.866Z,36.27
2023-07-11T08:19:22.775Z,36.05
2023-07-11T08:20:22.851Z,36.54
2023-07-11T08:21:22.773Z,36.07
2023-07-11T08:22:22.698Z,35.57
2023-07-11T08:23:22.802Z,35.35
2023-07-11T08:24:22.680Z,35.93
2023-07-11T08:25:22.632Z,34.83
2023-07-11T08:26:22.663Z,34.35
2023-07-11T08:27:22.579Z,35.02
2023-07-11T08:28:22.566Z,34.10
2023-07-11T08:29:29.659Z,34.65
2023-07-11T08:30:23.468Z,34.22
2023-07-11T08:31:22.536Z,35.34
2023-07-11T08:32:22.485Z,34.22
2023-07-11T08:33:22.341Z,33.82
2023-07-11T08:34:22.319Z,33.74
2023-07-11T08:35:22.279Z,34.27
2023-07-11T08:36:22.243Z,34.29
2023-07-11T08:37:22.210Z,34.10
2023-07-11T08:38:22.179Z,34.00
2023-07-11T08:39:22.147Z,34.10
2023-07-11T08:40:31.208Z,33.93
2023-07-11T08:41:23.077Z,33.77
2023-07-11T08:42:22.022Z,34.66
2023-07-11T08:43:21.992Z,34.55
2023-07-11T08:44:21.953Z,34.54
2023-07-11T08:45:21.925Z,33.43
2023-07-11T08:46:21.914Z,33.81
2023-07-11T08:47:21.862Z,34.76
2023-07-11T08:48:21.818Z,34.22
2023-07-11T08:49:21.791Z,34.48
2023-07-11T08:50:21.730Z,34.29
2023-07-11T08:51:21.680Z,33.63
2023-07-11T08:52:21.666Z,33.56
2023-07-11T08:53:21.623Z,33.81
2023-07-11T08:54:22.499Z,33.68
2023-07-11T08:55:21.505Z,32.85
2023-07-11T08:56:21.460Z,33.27
2023-07-11T08:57:21.393Z,32.05
2023-07-11T08:58:21.399Z,32.05
2023-07-11T08:59:21.321Z,31.96
2023-07-11T09:00:21.291Z,32.15
2023-07-11T09:01:21.253Z,31.25
2023-07-11T09:02:21.212Z,31.53
2023-07-11T09:03:21.170Z,30.36
2023-07-11T09:04:21.147Z,30.85
2023-07-11T09:05:21.030Z,31.64
2023-07-11T09:06:20.992Z,31.93
2023-07-11T09:07:20.930Z,30.44
2023-07-11T09:08:20.876Z,30.55
2023-07-11T09:09:20.833Z,28.45
2023-07-11T09:10:21.593Z,28.71
2023-07-11T09:11:20.722Z,29.25
2023-07-11T09:12:20.685Z,29.53
2023-07-11T09:13:20.665Z,29.01
2023-07-11T09:14:20.597Z,29.77
2023-07-11T09:15:20.548Z,29.24
2023-07-11T09:16:20.531Z,27.25
2023-07-11T09:17:20.434Z,27.32
2023-07-11T09:18:20.404Z,28.70
2023-07-11T09:19:20.336Z,29.05
2023-07-11T09:20:20.323Z,28.82
2023-07-11T09:21:20.267Z,29.09
2023-07-11T09:22:20.198Z,28.09
2023-07-11T09:23:37.071Z,28.21
2023-07-11T09:24:22.543Z,27.81
2023-07-11T09:25:20.270Z,28.03
2023-07-11T09:26:20.282Z,28.69
2023-07-11T09:27:20.243Z,28.17
2023-07-11T09:28:20.248Z,28.11
2023-07-11T09:29:20.211Z,27.75
2023-07-11T09:30:20.248Z,27.82
2023-07-11T09:31:20.337Z,28.21
2023-07-11T09:32:20.397Z,28.19
2023-07-11T09:33:20.357Z,28.41
2023-07-11T09:34:20.285Z,27.99
2023-07-11T09:35:20.260Z,28.19
2023-07-11T09:36:20.256Z,27.67
2023-07-11T09:37:20.259Z,27.44
2023-07-11T09:38:20.258Z,27.56
2023-07-11T09:39:20.254Z,27.73
2023-07-11T09:40:20.241Z,26.78
2023-07-11T09:41:20.201Z,26.44
2023-07-11T09:42:20.160Z,26.70
2023-07-11T09:43:20.132Z,26.38
2023-07-11T09:44:20.136Z,26.02
2023-07-11T09:45:20.164Z,24.85
2023-07-11T09:46:20.183Z,24.44
2023-07-11T09:47:20.141Z,25.75
2023-07-11T09:48:20.145Z,24.46
2023-07-11T09:49:20.111Z,24.47
2023-07-11T09:50:25.851Z,25.44
2023-07-11T09:51:21.106Z,25.27
2023-07-11T09:52:20.053Z,25.38
2023-07-11T09:53:20.032Z,25.09
2023-07-11T09:54:20.009Z,24.06
2023-07-11T09:55:20.011Z,22.96
2023-07-11T09:56:20.196Z,23.12
2023-07-11T09:57:20.021Z,22.85
2023-07-11T09:58:19.891Z,22.81
2023-07-11T09:59:19.889Z,22.69
2023-07-11T10:00:23.050Z,23.62
2023-07-11T10:01:19.865Z,23.18
2023-07-11T10:02:19.814Z,22.85
2023-07-11T10:03:19.759Z,23.13
2023-07-11T10:04:19.845Z,23.68
2023-07-11T10:05:19.739Z,24.30
2023-07-11T10:06:22.918Z,23.69
2023-07-11T10:07:20.701Z,23.22
2023-07-11T10:08:19.672Z,23.08
2023-07-11T10:09:19.672Z,22.91
2023-07-11T10:10:19.685Z,22.98
2023-07-11T10:11:19.581Z,24.32
2023-07-11T10:12:19.532Z,23.14
2023-07-11T10:13:26.705Z,23.75
2023-07-11T10:14:20.521Z,23.05
2023-07-11T10:15:19.469Z,23.92
2023-07-11T10:16:19.366Z,24.21
2023-07-11T10:17:19.492Z,23.60
2023-07-11T10:18:19.405Z,22.97
2023-07-11T10:19:19.282Z,24.66
2023-07-11T10:20:19.969Z,24.23
2023-07-11T10:21:19.850Z,24.98
2023-07-11T10:22:19.179Z,23.64
2023-07-11T10:23:19.135Z,23.75
2023-07-11T10:24:19.115Z,23.90
2023-07-11T10:25:19.078Z,23.84
2023-07-11T10:26:19.088Z,24.02
2023-07-11T10:27:19.037Z,23.60
2023-07-11T10:28:19.010Z,24.35
2023-07-11T10:29:25.131Z,24.44
2023-07-11T10:30:19.942Z,24.56
2023-07-11T10:31:18.927Z,23.96
2023-07-11T10:32:18.951Z,24.21
2023-07-11T10:33:23.382Z,23.86
2023-07-11T10:34:19.860Z,23.64
2023-07-11T10:35:18.843Z,23.76
2023-07-11T10:36:18.805Z,24.20
2023-07-11T10:37:18.757Z,25.04
2023-07-11T10:38:18.767Z,24.98
2023-07-11T10:39:18.733Z,25.08
2023-07-11T10:40:18.665Z,25.50
2023-07-11T10:41:18.656Z,25.69
2023-07-11T10:42:18.595Z,25.53
2023-07-11T10:43:18.602Z,24.62
2023-07-11T10:44:18.672Z,24.63
2023-07-11T10:45:18.655Z,24.58
2023-07-11T10:46:18.667Z,24.88
2023-07-11T10:47:18.573Z,25.56
2023-07-11T10:48:18.562Z,25.99
2023-07-11T10:49:18.562Z,26.15
2023-07-11T10:50:18.546Z,25.39
2023-07-11T10:51:18.512Z,26.00
2023-07-11T10:52:18.509Z,25.62
2023-07-11T10:53:18.457Z,25.93
2023-07-11T10:54:18.459Z,25.38
2023-07-11T10:55:18.450Z,25.46
2023-07-11T10:56:20.414Z,25.43
2023-07-11T10:57:22.666Z,25.67
2023-07-11T10:58:19.681Z,25.85
2023-07-11T10:59:18.639Z,26.08
2023-07-11T11:00:18.603Z,26.32
2023-07-11T11:01:18.677Z,25.93
2023-07-11T11:02:18.637Z,25.85
2023-07-11T11:03:18.593Z,26.91
2023-07-11T11:04:18.529Z,26.24
2023-07-11T11:05:18.500Z,26.09
2023-07-11T11:06:18.452Z,25.15
2023-07-11T11:07:18.401Z,24.74
2023-07-11T11:08:18.342Z,24.39
2023-07-11T11:09:18.351Z,24.42
2023-07-11T11:10:18.277Z,24.32
2023-07-11T11:11:18.248Z,25.11
2023-07-11T11:12:18.179Z,23.93
2023-07-11T11:13:18.145Z,23.30
2023-07-11T11:14:18.212Z,22.52
2023-07-11T11:15:18.086Z,23.30
2023-07-11T11:16:18.048Z,23.92
2023-07-11T11:17:18.065Z,23.15
2023-07-11T11:18:17.978Z,22.20
2023-07-11T11:19:17.988Z,22.30
2023-07-11T11:20:17.981Z,23.07
2023-07-11T11:21:21.413Z,22.31
2023-07-11T11:22:18.799Z,22.38
2023-07-11T11:23:17.737Z,22.09
2023-07-11T11:24:17.718Z,22.08
2023-07-11T11:25:17.627Z,22.22
2023-07-11T11:26:17.579Z,22.31
2023-07-11T11:27:17.535Z,21.87
2023-07-11T11:28:17.493Z,21.63
2023-07-11T11:29:17.492Z,21.84
2023-07-11T11:30:17.407Z,21.34
2023-07-11T11:31:17.515Z,21.01
2023-07-11T11:32:17.300Z,21.29
2023-07-11T11:33:17.208Z,21.35
2023-07-11T11:34:17.175Z,21.29
2023-07-11T11:35:17.202Z,22.33
2023-07-11T11:36:17.069Z,21.04
2023-07-11T11:37:17.079Z,21.38
2023-07-11T11:38:17.064Z,21.59
2023-07-11T11:39:17.033Z,21.41
2023-07-11T11:40:17.105Z,21.17
2023-07-11T11:41:16.930Z,21.03
2023-07-11T11:42:16.910Z,21.92
2023-07-11T11:43:19.210Z,21.53
2023-07-11T11:51:16.466Z,22.56
2023-07-11T11:52:16.349Z,22.94
2023-07-11T11:53:18.353Z,23.07
2023-07-11T11:54:16.299Z,23.46
2023-07-11T11:55:16.243Z,23.20
2023-07-11T11:56:23.281Z,23.00
2023-07-11T11:57:17.164Z,23.10
2023-07-11T11:58:16.110Z,22.92
2023-07-11T11:59:16.072Z,23.21
2023-07-11T12:00:16.056Z,23.17
2023-07-11T12:01:15.986Z,23.91
2023-07-11T12:02:15.955Z,22.37
2023-07-11T12:03:15.883Z,22.72
2023-07-11T12:04:15.927Z,22.86
2023-07-11T12:05:15.866Z,24.03
2023-07-11T12:06:15.737Z,23.58
2023-07-11T12:07:15.663Z,22.78
2023-07-11T12:08:15.660Z,23.18
2023-07-11T12:09:15.593Z,23.28
2023-07-11T12:10:16.237Z,24.27
2023-07-11T12:11:15.476Z,24.01
2023-07-11T12:12:15.453Z,24.72
2023-07-11T12:13:15.409Z,25.46
2023-07-11T12:14:15.465Z,24.99
2023-07-11T12:15:15.394Z,25.44
2023-07-11T12:16:21.336Z,25.71
2023-07-11T12:17:16.387Z,26.50
2023-07-11T12:18:15.333Z,27.22
2023-07-11T12:19:15.320Z,26.77
2023-07-11T12:20:15.292Z,26.24
2023-07-11T12:21:15.311Z,25.95
2023-07-11T12:22:15.292Z,26.76
2023-07-11T12:23:29.925Z,27.41
2023-07-11T12:24:41.324Z,26.99
2023-07-11T12:25:16.250Z,26.52
2023-07-11T12:26:15.243Z,27.14
2023-07-11T12:27:15.221Z,28.31
2023-07-11T12:28:15.224Z,27.52
2023-07-11T12:29:15.177Z,28.07
2023-07-11T12:30:15.180Z,28.31
2023-07-11T12:31:15.093Z,27.51
2023-07-11T12:32:15.152Z,27.26
2023-07-11T12:33:15.081Z,26.83
2023-07-11T12:34:14.989Z,27.47
2023-07-11T12:35:15.214Z,27.54
2023-07-11T12:36:14.997Z,27.70
2023-07-11T12:37:14.904Z,28.49
2023-07-11T12:38:14.905Z,27.35
2023-07-11T12:39:14.887Z,27.57
2023-07-11T12:40:14.905Z,28.19
2023-07-11T12:41:14.869Z,28.43
2023-07-11T12:42:14.875Z,28.97
2023-07-11T12:43:14.809Z,28.75
2023-07-11T12:44:14.820Z,28.66
2023-07-11T12:45:14.773Z,28.51
2023-07-11T12:46:14.766Z,28.67
2023-07-11T12:47:14.720Z,28.61
2023-07-11T12:48:14.709Z,28.35
2023-07-11T12:49:14.675Z,29.08
2023-07-11T12:50:14.624Z,29.93
2023-07-11T12:51:14.585Z,30.25
2023-07-11T12:52:14.517Z,29.35
2023-07-11T12:53:14.553Z,29.07
2023-07-11T12:54:14.516Z,29.23
2023-07-11T12:55:14.423Z,29.81
2023-07-11T12:56:14.385Z,30.75
2023-07-11T12:57:14.359Z,30.93
2023-07-11T12:58:14.326Z,31.25
2023-07-11T12:59:14.298Z,31.75
2023-07-11T13:00:14.254Z,31.73